createdAt,value
2022-07-31T00:01:44.175Z,71.04
2022-07-31T00:04:12.141Z,71.50
2022-07-31T00:06:47.206Z,72.21
2022-07-31T00:09:53.703Z,71.57
2022-07-31T00:12:06.333Z,73.01
2022-07-31T00:14:37.082Z,72.88
2022-07-31T00:17:05.778Z,71.46
2022-07-31T00:19:34.042Z,71.36
2022-07-31T00:22:02.414Z,71.98
2022-07-31T00:24:45.725Z,73.13
2022-07-31T00:27:13.903Z,71.66
2022-07-31T00:29:41.855Z,70.38
2022-07-31T00:32:11.608Z,69.42
2022-07-31T00:34:42.872Z,69.74
2022-07-31T00:37:11.210Z,70.58
2022-07-31T00:39:46.851Z,70.71
2022-07-31T00:42:18.436Z,70.32
2022-07-31T00:44:47.906Z,71.46
2022-07-31T00:47:16.995Z,71.14
2022-07-31T00:49:45.919Z,71.42
2022-07-31T00:52:16.338Z,71.96
2022-07-31T00:54:48.939Z,72.67
2022-07-31T00:57:16.900Z,73.48
2022-07-31T00:59:45.758Z,72.96
2022-07-31T01:02:13.712Z,72.80
2022-07-31T01:04:55.527Z,74.29
2022-07-31T01:07:23.779Z,74.52
2022-07-31T01:09:55.500Z,73.95
2022-07-31T01:12:31.445Z,74.18
2022-07-31T01:15:06.185Z,75.06
2022-07-31T01:17:36.514Z,74.72
2022-07-31T01:20:05.871Z,74.93
2022-07-31T01:22:53.384Z,75.54
2022-07-31T01:25:48.632Z,75.98
2022-07-31T01:28:31.075Z,75.49
2022-07-31T01:31:26.220Z,76.49
2022-07-31T01:34:01.215Z,76.09
2022-07-31T01:36:35.187Z,76.01
2022-07-31T01:39:04.116Z,75.54
2022-07-31T01:41:39.150Z,75.97
2022-07-31T01:44:13.982Z,76.04
2022-07-31T01:46:45.888Z,76.07
2022-07-31T01:49:15.888Z,76.17
2022-07-31T01:51:54.894Z,77.16
2022-07-31T01:54:34.109Z,78.25
2022-07-31T01:57:04.551Z,78.75
2022-07-31T01:59:35.441Z,78.41
2022-07-31T02:02:06.022Z,78.50
2022-07-31T02:04:38.553Z,79.49
2022-07-31T02:07:08.321Z,81.09
2022-07-31T02:09:37.915Z,81.57
2022-07-31T02:12:31.938Z,81.89
2022-07-31T02:15:05.671Z,82.33
2022-07-31T02:17:35.478Z,82.04
2022-07-31T02:20:06.949Z,81.99
2022-07-31T02:22:35.520Z,82.71
2022-07-31T02:25:03.971Z,82.61
2022-07-31T02:27:53.826Z,83.56
2022-07-31T02:30:39.045Z,82.84
2022-07-31T02:33:13.670Z,83.71
2022-07-31T02:35:45.967Z,83.40
2022-07-31T02:38:22.500Z,82.95
2022-07-31T02:40:52.847Z,83.29
2022-07-31T02:43:21.830Z,83.34
2022-07-31T02:45:50.076Z,84.57
2022-07-31T02:48:21.392Z,84.62
2022-07-31T02:50:49.815Z,88.26
2022-07-31T02:53:17.886Z,89.44
2022-07-31T02:55:53.027Z,89.27
2022-07-31T02:58:21.445Z,90.14
2022-07-31T03:00:49.457Z,89.60
2022-07-31T03:03:17.922Z,89.53
2022-07-31T03:05:47.364Z,89.04
2022-07-31T03:08:15.301Z,88.21
2022-07-31T03:10:50.323Z,87.43
2022-07-31T03:13:22.581Z,86.87
2022-07-31T03:15:53.167Z,86.06
2022-07-31T03:18:21.874Z,84.93
2022-07-31T03:20:52.913Z,84.21
2022-07-31T03:23:23.663Z,83.65
2022-07-31T03:25:52.340Z,82.99
2022-07-31T03:28:21.191Z,82.22
2022-07-31T03:30:56.112Z,81.86
2022-07-31T03:33:24.856Z,81.62
2022-07-31T03:35:54.548Z,80.91
2022-07-31T03:38:39.222Z,80.23
2022-07-31T03:41:11.404Z,79.65
2022-07-31T03:43:49.097Z,78.64
2022-07-31T03:46:19.879Z,77.97
2022-07-31T03:48:52.487Z,77.35
2022-07-31T03:51:22.810Z,77.33
2022-07-31T03:53:51.770Z,76.76
2022-07-31T03:56:20.723Z,76.13
2022-07-31T03:58:52.490Z,75.58
2022-07-31T04:01:22.132Z,75.52
2022-07-31T04:03:50.309Z,75.69
2022-07-31T04:06:18.360Z,75.62
2022-07-31T04:08:49.022Z,75.76
2022-07-31T04:11:17.962Z,76.03
2022-07-31T04:13:46.161Z,76.18
2022-07-31T04:16:16.060Z,76.39
2022-07-31T04:18:50.730Z,76.45
2022-07-31T04:21:19.137Z,76.62
2022-07-31T04:23:50.100Z,76.37
2022-07-31T04:26:20.057Z,76.79
2022-07-31T04:28:54.515Z,76.73
2022-07-31T04:31:22.558Z,77.12
2022-07-31T04:33:55.971Z,77.11
2022-07-31T04:36:29.630Z,77.74
2022-07-31T04:39:00.198Z,77.64
2022-07-31T04:41:28.840Z,77.83
2022-07-31T04:43:57.935Z,77.79
2022-07-31T04:49:33.244Z,77.17
2022-07-31T04:52:02.325Z,77.00
2022-07-31T04:54:32.252Z,76.59
2022-07-31T04:57:01.766Z,76.18
2022-07-31T04:59:59.434Z,76.05
2022-07-31T05:02:45.025Z,76.09
2022-07-31T05:05:13.018Z,76.39
2022-07-31T05:07:41.280Z,75.16
2022-07-31T05:10:31.500Z,75.22
2022-07-31T05:13:00.241Z,74.79
2022-07-31T05:15:30.090Z,74.05
2022-07-31T05:18:01.006Z,74.44
2022-07-31T05:20:29.126Z,73.70
2022-07-31T05:22:57.247Z,74.12
2022-07-31T05:25:27.106Z,74.37
2022-07-31T05:27:55.409Z,74.75
2022-07-31T05:30:30.597Z,74.09
2022-07-31T05:32:59.925Z,75.07
2022-07-31T05:35:27.950Z,76.22
2022-07-31T05:37:56.071Z,73.80
2022-07-31T05:40:24.651Z,74.85
2022-07-31T05:42:54.075Z,75.25
2022-07-31T05:45:22.195Z,75.47
2022-07-31T05:47:50.523Z,74.88
2022-07-31T05:50:19.250Z,74.17
2022-07-31T05:52:47.280Z,75.04
2022-07-31T05:55:15.254Z,75.13
2022-07-31T05:57:45.541Z,74.12
2022-07-31T06:00:17.629Z,73.55
2022-07-31T06:02:49.349Z,73.38
2022-07-31T06:05:17.492Z,73.56
2022-07-31T06:07:51.240Z,73.57
2022-07-31T06:10:20.315Z,72.31
2022-07-31T06:12:48.695Z,71.13
2022-07-31T06:15:19.227Z,70.96
2022-07-31T06:17:51.289Z,69.61
2022-07-31T06:20:20.516Z,68.20
2022-07-31T06:22:48.563Z,67.53
2022-07-31T06:25:17.156Z,67.37
2022-07-31T06:27:55.024Z,66.18
2022-07-31T06:30:29.164Z,64.96
2022-07-31T06:32:57.206Z,66.19
2022-07-31T06:35:25.414Z,66.72
2022-07-31T06:37:54.206Z,64.88
2022-07-31T06:40:22.683Z,64.75
2022-07-31T06:42:52.807Z,64.46
2022-07-31T06:45:35.677Z,63.61
2022-07-31T06:48:14.303Z,64.10
2022-07-31T06:50:45.921Z,62.78
2022-07-31T06:53:13.999Z,62.12
2022-07-31T06:55:44.418Z,60.75
2022-07-31T06:58:12.990Z,59.68
2022-07-31T07:00:41.434Z,58.54
2022-07-31T07:03:10.739Z,58.10
2022-07-31T07:05:43.842Z,58.96
2022-07-31T07:08:13.238Z,55.49
2022-07-31T07:10:42.939Z,54.16
2022-07-31T07:13:11.216Z,53.52
2022-07-31T07:15:40.986Z,53.87
2022-07-31T07:18:10.878Z,55.81
2022-07-31T07:20:38.977Z,50.11
2022-07-31T07:23:07.088Z,49.63
2022-07-31T07:25:35.161Z,50.51
2022-07-31T07:28:03.137Z,51.13
2022-07-31T07:30:31.119Z,49.97
2022-07-31T07:32:59.874Z,49.32
2022-07-31T07:35:47.426Z,49.50
2022-07-31T07:38:15.733Z,49.10
2022-07-31T07:40:44.680Z,49.47
2022-07-31T07:43:12.766Z,48.76
2022-07-31T07:45:41.975Z,48.70
2022-07-31T07:48:10.444Z,47.71
2022-07-31T07:50:41.996Z,47.92
2022-07-31T07:53:13.092Z,48.10
2022-07-31T07:55:41.165Z,48.77
2022-07-31T07:58:12.012Z,49.12
2022-07-31T08:00:40.948Z,49.11
2022-07-31T08:03:48.753Z,47.84
2022-07-31T08:05:58.458Z,47.22
2022-07-31T08:08:40.208Z,47.55
2022-07-31T08:11:08.452Z,47.72
2022-07-31T08:13:36.745Z,47.19
2022-07-31T08:16:10.756Z,47.58
2022-07-31T08:18:39.100Z,45.87
2022-07-31T08:21:08.530Z,45.70
2022-07-31T08:23:36.755Z,46.78
2022-07-31T08:26:06.648Z,45.71
2022-07-31T08:28:36.095Z,46.16
2022-07-31T08:31:06.251Z,45.84
2022-07-31T08:33:37.594Z,46.02
2022-07-31T08:36:09.358Z,46.21
2022-07-31T08:38:39.583Z,45.74
2022-07-31T08:41:09.040Z,45.32
2022-07-31T08:44:01.751Z,44.98
2022-07-31T08:46:27.051Z,43.67
2022-07-31T08:48:58.548Z,43.07
2022-07-31T08:51:27.795Z,43.07
2022-07-31T08:53:58.447Z,45.57
2022-07-31T08:56:27.064Z,44.37
2022-07-31T08:58:57.462Z,44.18
2022-07-31T09:01:26.015Z,44.06
2022-07-31T09:03:55.394Z,42.04
2022-07-31T09:06:23.515Z,41.12
2022-07-31T09:11:54.168Z,42.47
2022-07-31T09:14:30.215Z,42.34
2022-07-31T09:16:58.616Z,43.32
2022-07-31T09:19:52.049Z,42.41
2022-07-31T09:22:23.814Z,41.95
2022-07-31T09:24:52.272Z,42.18
2022-07-31T09:27:29.021Z,42.29
2022-07-31T09:29:58.229Z,40.47
2022-07-31T09:32:26.363Z,42.41
2022-07-31T09:34:55.471Z,42.09
2022-07-31T09:37:27.457Z,40.87
2022-07-31T09:39:58.214Z,39.87
2022-07-31T09:42:38.155Z,39.59
2022-07-31T09:45:17.957Z,38.99
2022-07-31T09:47:46.798Z,39.51
2022-07-31T09:50:15.636Z,39.11
2022-07-31T09:52:44.401Z,40.74
2022-07-31T09:55:17.050Z,39.95
2022-07-31T09:58:11.807Z,40.31
2022-07-31T10:00:40.681Z,39.60
2022-07-31T10:03:09.492Z,38.42
2022-07-31T10:05:39.448Z,39.47
2022-07-31T10:08:08.027Z,39.06
2022-07-31T10:10:40.357Z,38.12
2022-07-31T10:13:13.363Z,39.25
2022-07-31T10:15:42.032Z,39.92
2022-07-31T10:18:11.425Z,39.36
2022-07-31T10:20:43.311Z,39.30
2022-07-31T10:23:27.449Z,39.13
2022-07-31T10:26:00.641Z,41.26
2022-07-31T10:28:30.880Z,42.36
2022-07-31T10:30:59.733Z,42.21
2022-07-31T10:33:43.693Z,43.24
2022-07-31T10:36:19.322Z,43.29
2022-07-31T10:38:53.170Z,43.98
2022-07-31T10:41:32.147Z,43.97
2022-07-31T10:44:06.825Z,43.70
2022-07-31T10:46:35.312Z,43.54
2022-07-31T10:49:10.649Z,43.02
2022-07-31T10:51:51.118Z,42.82
2022-07-31T10:54:19.239Z,42.42
2022-07-31T10:56:48.388Z,42.54
2022-07-31T10:59:28.803Z,42.29
2022-07-31T11:01:57.030Z,42.46
2022-07-31T11:04:28.747Z,42.92
2022-07-31T11:06:57.676Z,42.89
2022-07-31T11:09:26.956Z,43.70
2022-07-31T11:11:56.056Z,42.13
2022-07-31T11:14:39.103Z,42.11
2022-07-31T11:17:07.551Z,41.93
2022-07-31T11:19:41.430Z,41.60
2022-07-31T11:22:30.872Z,42.43
2022-07-31T11:25:02.408Z,43.04
2022-07-31T11:27:36.838Z,42.21
2022-07-31T11:30:13.513Z,42.84
2022-07-31T11:32:42.081Z,42.24
2022-07-31T11:35:10.522Z,41.77
2022-07-31T11:37:57.116Z,41.20
2022-07-31T11:40:27.698Z,40.83
2022-07-31T11:45:52.278Z,38.33
2022-07-31T11:48:22.465Z,38.65
2022-07-31T11:50:52.765Z,37.90
2022-07-31T11:53:21.366Z,37.40
2022-07-31T11:55:54.047Z,38.20
2022-07-31T11:58:24.045Z,37.88
2022-07-31T12:00:55.453Z,38.87
2022-07-31T12:03:42.209Z,38.63
2022-07-31T12:06:11.547Z,38.23
2022-07-31T12:08:41.004Z,38.29
2022-07-31T12:11:11.368Z,36.80
2022-07-31T12:13:49.257Z,39.02
2022-07-31T12:16:19.931Z,39.47
2022-07-31T12:18:49.652Z,39.41
2022-07-31T12:21:18.835Z,39.73
2022-07-31T12:23:50.097Z,39.12
2022-07-31T12:26:32.539Z,38.64
2022-07-31T12:29:02.050Z,39.20
2022-07-31T12:31:44.552Z,36.84
2022-07-31T12:34:12.782Z,37.69
2022-07-31T12:36:40.851Z,38.47
2022-07-31T12:39:08.939Z,37.54
2022-07-31T12:41:46.197Z,38.12
2022-07-31T12:44:35.144Z,37.87
2022-07-31T12:47:04.854Z,37.45
2022-07-31T12:49:36.441Z,38.72
2022-07-31T12:52:04.721Z,37.39
2022-07-31T12:54:37.821Z,37.89
2022-07-31T12:57:07.616Z,38.09
2022-07-31T12:59:39.328Z,38.34
2022-07-31T13:02:09.435Z,38.17
2022-07-31T13:04:37.624Z,37.75
2022-07-31T13:07:06.393Z,37.21
2022-07-31T13:09:34.873Z,36.02
2022-07-31T13:12:02.980Z,36.88
2022-07-31T13:14:42.742Z,38.02
2022-07-31T13:17:12.286Z,36.49
2022-07-31T13:19:40.251Z,37.03
2022-07-31T13:22:08.332Z,36.30
2022-07-31T13:24:36.395Z,36.93
2022-07-31T13:27:04.715Z,36.90
2022-07-31T13:29:35.047Z,37.24
2022-07-31T13:32:10.809Z,37.48
2022-07-31T13:34:40.255Z,39.93
2022-07-31T13:37:08.287Z,40.52
2022-07-31T13:39:36.307Z,40.82
2022-07-31T13:42:05.595Z,41.20
2022-07-31T13:44:34.436Z,40.74
2022-07-31T13:47:02.685Z,41.03
2022-07-31T13:49:33.401Z,41.97
2022-07-31T13:52:03.238Z,40.90
2022-07-31T13:54:31.573Z,40.85
2022-07-31T13:56:59.611Z,41.86
2022-07-31T13:59:33.171Z,41.75
2022-07-31T14:02:04.461Z,41.80
2022-07-31T14:04:38.441Z,41.66
2022-07-31T14:07:09.245Z,42.75
2022-07-31T14:09:37.919Z,41.54
2022-07-31T14:12:08.159Z,41.33
2022-07-31T14:14:38.084Z,40.93
2022-07-31T14:17:06.434Z,40.51
2022-07-31T14:19:40.611Z,39.69
2022-07-31T14:22:14.652Z,41.63
2022-07-31T14:24:45.639Z,40.83
2022-07-31T14:27:18.833Z,41.86
2022-07-31T14:29:46.958Z,43.04
2022-07-31T14:32:35.021Z,43.94
2022-07-31T14:35:07.786Z,44.06
2022-07-31T14:37:38.327Z,42.49
2022-07-31T14:40:07.610Z,42.26
2022-07-31T14:42:35.909Z,42.58
2022-07-31T14:45:04.114Z,42.62
2022-07-31T14:47:39.199Z,42.34
2022-07-31T14:50:12.098Z,42.46
2022-07-31T14:52:43.968Z,42.41
2022-07-31T14:55:11.931Z,43.67
2022-07-31T14:57:40.251Z,44.17
2022-07-31T15:00:13.526Z,44.09
2022-07-31T15:02:42.250Z,43.90
2022-07-31T15:06:38.712Z,43.83
2022-07-31T15:08:02.657Z,43.91
2022-07-31T15:10:32.525Z,43.24
2022-07-31T15:13:00.642Z,41.92
2022-07-31T15:15:29.072Z,42.95
2022-07-31T15:17:59.948Z,42.62
2022-07-31T15:20:32.824Z,42.51
2022-07-31T15:23:03.115Z,41.34
2022-07-31T15:25:31.503Z,42.54
2022-07-31T15:27:59.622Z,41.73
2022-07-31T15:30:27.768Z,41.28
2022-07-31T15:32:55.707Z,41.69
2022-07-31T15:35:23.842Z,40.99
2022-07-31T15:37:51.905Z,40.76
2022-07-31T15:40:21.321Z,38.35
2022-07-31T15:42:50.015Z,37.03
2022-07-31T15:45:19.853Z,36.04
2022-07-31T15:47:50.662Z,34.80
2022-07-31T15:50:20.890Z,33.80
2022-07-31T15:52:49.509Z,32.99
2022-07-31T15:55:18.096Z,31.73
2022-07-31T15:57:59.379Z,30.71
2022-07-31T16:00:28.932Z,29.84
2022-07-31T16:02:56.912Z,30.58
2022-07-31T16:05:36.512Z,29.29
2022-07-31T16:08:29.177Z,29.26
2022-07-31T16:10:56.416Z,29.13
2022-07-31T16:13:27.538Z,28.74
2022-07-31T16:15:55.566Z,28.48
2022-07-31T16:18:23.638Z,27.59
2022-07-31T16:20:51.926Z,28.48
2022-07-31T16:23:19.996Z,28.19
2022-07-31T16:25:50.885Z,27.85
2022-07-31T16:28:18.905Z,27.32
2022-07-31T16:30:48.926Z,27.18
2022-07-31T16:33:16.986Z,28.05
2022-07-31T16:35:44.963Z,27.90
2022-07-31T16:38:12.992Z,28.82
2022-07-31T16:40:41.231Z,27.74
2022-07-31T16:43:47.457Z,28.00
2022-07-31T16:46:05.056Z,28.96
2022-07-31T16:48:33.098Z,30.20
2022-07-31T16:51:01.525Z,30.83
2022-07-31T16:54:14.562Z,31.19
2022-07-31T16:56:19.889Z,32.78
2022-07-31T16:58:52.668Z,32.37
2022-07-31T17:01:58.396Z,32.00
2022-07-31T17:04:13.992Z,34.25
2022-07-31T17:06:57.287Z,33.82
2022-07-31T17:09:25.856Z,33.24
2022-07-31T17:11:57.522Z,33.10
2022-07-31T17:14:30.911Z,33.33
2022-07-31T17:17:00.419Z,33.19
2022-07-31T17:19:41.570Z,33.79
2022-07-31T17:22:17.798Z,34.68
2022-07-31T17:24:50.817Z,34.41
2022-07-31T17:27:20.766Z,35.44
2022-07-31T17:29:49.410Z,36.68
2022-07-31T17:32:19.032Z,37.08
2022-07-31T17:34:49.568Z,37.86
2022-07-31T17:37:18.398Z,38.71
2022-07-31T17:39:46.615Z,40.13
2022-07-31T17:42:14.751Z,41.11
2022-07-31T17:44:48.946Z,41.66
2022-07-31T17:47:22.656Z,42.46
2022-07-31T17:49:50.695Z,43.76
2022-07-31T17:52:20.909Z,43.89
2022-07-31T17:54:51.039Z,44.01
2022-07-31T17:57:19.743Z,45.00
2022-07-31T17:59:50.611Z,45.50
2022-07-31T18:02:18.556Z,44.98
2022-07-31T18:04:48.117Z,44.24
2022-07-31T18:07:18.346Z,43.53
2022-07-31T18:09:48.241Z,43.60
2022-07-31T18:12:16.681Z,43.02
2022-07-31T18:14:48.404Z,41.82
2022-07-31T18:17:16.426Z,41.23
2022-07-31T18:20:01.581Z,40.66
2022-07-31T18:22:35.032Z,41.05
2022-07-31T18:25:19.186Z,40.91
2022-07-31T18:27:47.684Z,41.08
2022-07-31T18:30:15.793Z,41.53
2022-07-31T18:32:44.298Z,42.47
2022-07-31T18:35:13.630Z,42.87
2022-07-31T18:37:41.885Z,43.82
2022-07-31T18:40:10.750Z,44.07
2022-07-31T18:42:39.291Z,44.23
2022-07-31T18:45:08.279Z,45.33
2022-07-31T18:47:37.231Z,45.56
2022-07-31T18:51:01.943Z,46.18
2022-07-31T18:52:55.124Z,46.43
2022-07-31T18:55:23.585Z,46.94
2022-07-31T18:57:52.201Z,47.35
2022-07-31T19:00:20.129Z,48.45
2022-07-31T19:02:48.572Z,50.22
2022-07-31T19:05:21.878Z,50.31
2022-07-31T19:07:51.828Z,51.39
2022-07-31T19:10:29.114Z,51.86
2022-07-31T19:12:58.750Z,51.76
2022-07-31T19:15:26.722Z,51.89
2022-07-31T19:17:58.452Z,52.65
2022-07-31T19:20:41.244Z,53.23
2022-07-31T19:23:16.797Z,53.01
2022-07-31T19:26:04.302Z,53.60
2022-07-31T19:28:33.050Z,53.61
2022-07-31T19:31:01.454Z,53.76
2022-07-31T19:33:29.805Z,54.12
2022-07-31T19:36:01.843Z,54.37
2022-07-31T19:38:32.194Z,53.79
2022-07-31T19:41:01.950Z,54.42
2022-07-31T19:43:30.341Z,54.41
2022-07-31T19:46:10.127Z,53.64
2022-07-31T19:48:41.361Z,53.90
2022-07-31T19:51:09.758Z,53.26
2022-07-31T19:53:38.177Z,53.09
2022-07-31T19:56:08.043Z,53.04
2022-07-31T19:58:37.363Z,52.55
2022-07-31T20:01:06.046Z,52.79
2022-07-31T20:03:34.276Z,52.42
2022-07-31T20:06:02.946Z,52.34
2022-07-31T20:08:34.135Z,52.31
2022-07-31T20:11:05.947Z,51.45
2022-07-31T20:13:37.868Z,51.99
2022-07-31T20:16:06.964Z,51.96
2022-07-31T20:18:35.136Z,51.60
2022-07-31T20:21:07.030Z,50.99
2022-07-31T20:23:38.441Z,51.95
2022-07-31T20:26:07.434Z,51.17
2022-07-31T20:28:38.336Z,50.46
2022-07-31T20:31:06.459Z,51.55
2022-07-31T20:33:56.887Z,50.87
2022-07-31T20:36:26.702Z,52.18
2022-07-31T20:38:55.244Z,52.33
2022-07-31T20:41:23.559Z,52.22
2022-07-31T20:43:53.382Z,51.54
2022-07-31T20:46:21.723Z,51.63
2022-07-31T20:48:52.811Z,51.07
2022-07-31T20:51:24.216Z,51.82
2022-07-31T20:53:52.964Z,51.98
2022-07-31T20:56:21.482Z,52.41
2022-07-31T20:58:51.641Z,52.59
2022-07-31T21:01:22.119Z,52.96
2022-07-31T21:03:51.294Z,52.34
2022-07-31T21:06:21.234Z,52.92
2022-07-31T21:08:49.480Z,52.08
2022-07-31T21:11:17.890Z,52.41
2022-07-31T21:13:55.088Z,53.45
2022-07-31T21:16:24.507Z,53.17
2022-07-31T21:18:53.855Z,53.63
2022-07-31T21:21:22.138Z,52.91
2022-07-31T21:23:50.545Z,53.35
2022-07-31T21:26:18.924Z,53.38
2022-07-31T21:28:51.022Z,54.14
2022-07-31T21:31:19.551Z,53.65
2022-07-31T21:33:49.560Z,53.88
2022-07-31T21:36:18.083Z,54.35
2022-07-31T21:38:49.784Z,53.71
2022-07-31T21:41:18.479Z,53.28
2022-07-31T21:43:58.703Z,53.92
2022-07-31T21:46:32.074Z,53.50
2022-07-31T21:49:03.144Z,52.68
2022-07-31T21:51:33.354Z,53.03
2022-07-31T21:54:01.739Z,52.73
2022-07-31T21:56:29.790Z,53.00
2022-07-31T21:58:58.375Z,53.33
2022-07-31T22:01:26.347Z,52.63
2022-07-31T22:03:54.419Z,53.22
2022-07-31T22:06:41.241Z,53.86
2022-07-31T22:09:09.919Z,53.73
2022-07-31T22:11:38.115Z,53.73
2022-07-31T22:14:09.237Z,54.43
2022-07-31T22:16:38.534Z,54.68
2022-07-31T22:19:06.874Z,55.42
2022-07-31T22:21:36.888Z,54.75
2022-07-31T22:24:05.636Z,54.91
2022-07-31T22:26:33.911Z,54.97
2022-07-31T22:29:02.909Z,54.39
2022-07-31T22:31:31.179Z,54.44
2022-07-31T22:33:59.554Z,55.36
2022-07-31T22:36:28.747Z,55.18
2022-07-31T22:38:58.413Z,55.51
2022-07-31T22:41:26.487Z,55.66
2022-07-31T22:44:14.621Z,55.41
2022-07-31T22:46:43.549Z,55.20
2022-07-31T22:49:12.038Z,55.19
2022-07-31T22:51:43.665Z,55.03
2022-07-31T22:54:15.648Z,54.19
2022-07-31T22:56:43.698Z,55.27
2022-07-31T22:59:11.957Z,55.13
2022-07-31T23:01:39.952Z,55.83
2022-07-31T23:04:07.914Z,55.12
2022-07-31T23:06:36.260Z,55.90
2022-07-31T23:09:04.582Z,56.24
2022-07-31T23:11:34.187Z,56.58
2022-07-31T23:14:03.600Z,56.22
2022-07-31T23:16:36.844Z,56.22
2022-07-31T23:19:05.013Z,55.95
2022-07-31T23:21:33.302Z,55.56
2022-07-31T23:24:01.455Z,55.45
2022-07-31T23:26:29.451Z,55.89
2022-07-31T23:28:58.754Z,55.79
2022-07-31T23:31:27.219Z,56.60
2022-07-31T23:33:55.539Z,56.42
2022-07-31T23:36:23.814Z,56.48
2022-07-31T23:38:52.202Z,56.63
2022-07-31T23:41:41.217Z,56.50
2022-07-31T23:44:10.766Z,57.24
2022-07-31T23:46:40.301Z,57.67
2022-07-31T23:49:09.215Z,56.54
2022-07-31T23:51:38.875Z,57.43
2022-07-31T23:54:07.776Z,56.88
2022-07-31T23:56:35.763Z,56.48
2022-07-31T23:59:03.766Z,56.17
